createdAt,value
2018-01-11T00:01:06.961Z,101193.91
2018-01-11T00:03:35.361Z,101199.73
2018-01-11T00:06:03.671Z,101195.00
2018-01-11T00:08:31.999Z,101192.66
2018-01-11T00:11:00.329Z,101192.48
2018-01-11T00:13:29.389Z,101194.55
2018-01-11T00:15:58.487Z,101193.45
2018-01-11T00:18:27.827Z,101203.28
2018-01-11T00:20:56.140Z,101204.70
2018-01-11T00:23:24.488Z,101203.78
2018-01-11T00:25:52.819Z,101209.44
2018-01-11T00:28:21.129Z,101214.13
2018-01-11T00:30:50.195Z,101213.11
2018-01-11T00:33:18.529Z,101210.86
2018-01-11T00:35:46.877Z,101214.45
2018-01-11T00:38:15.190Z,101211.82
2018-01-11T00:40:43.521Z,101216.83
2018-01-11T00:43:12.563Z,101226.24
2018-01-11T00:45:41.637Z,101218.43
2018-01-11T00:48:09.959Z,101217.60
2018-01-11T00:50:38.295Z,101223.34
2018-01-11T00:53:06.660Z,101224.36
2018-01-11T00:55:35.015Z,101220.86
2018-01-11T00:58:03.325Z,101225.98
2018-01-11T01:00:31.665Z,101228.19
2018-01-11T01:03:00.004Z,101220.70
2018-01-11T01:05:28.316Z,101222.98
2018-01-11T01:07:57.401Z,101220.06
2018-01-11T01:10:25.727Z,101218.86
2018-01-11T01:12:54.874Z,101226.56
2018-01-11T01:15:23.199Z,101231.21
2018-01-11T01:17:51.575Z,101232.16
2018-01-11T01:20:19.888Z,101243.31
2018-01-11T01:22:48.207Z,101242.81
2018-01-11T01:25:16.556Z,101247.22
2018-01-11T01:27:44.885Z,101247.98
2018-01-11T01:30:13.949Z,101249.64
2018-01-11T01:32:42.285Z,101251.63
2018-01-11T01:35:10.624Z,101260.51
2018-01-11T01:37:38.943Z,101267.73
2018-01-11T01:40:07.329Z,101275.18
2018-01-11T01:42:35.662Z,101269.98
2018-01-11T01:45:03.969Z,101272.73
2018-01-11T01:47:32.510Z,101277.97
2018-01-11T01:50:00.829Z,101275.51
2018-01-11T01:52:29.140Z,101277.81
2018-01-11T01:54:57.449Z,101286.05
2018-01-11T01:57:25.792Z,101289.77
2018-01-11T01:59:54.876Z,101286.42
2018-01-11T02:02:23.962Z,101289.95
2018-01-11T02:04:52.272Z,101293.26
2018-01-11T02:07:21.345Z,101295.24
2018-01-11T02:09:49.666Z,101296.81
2018-01-11T02:12:18.002Z,101293.97
2018-01-11T02:14:46.325Z,101294.05
2018-01-11T02:17:14.694Z,101294.98
2018-01-11T02:19:43.772Z,101290.15
2018-01-11T02:22:12.099Z,101299.56
2018-01-11T02:24:40.432Z,101300.98
2018-01-11T02:27:08.760Z,101303.23
2018-01-11T02:29:37.873Z,101310.48
2018-01-11T02:32:06.212Z,101308.42
2018-01-11T02:34:34.548Z,101314.16
2018-01-11T02:37:02.858Z,101311.91
2018-01-11T02:39:31.169Z,101321.98
2018-01-11T02:42:00.232Z,101324.38
2018-01-11T02:44:28.550Z,101319.88
2018-01-11T02:46:57.616Z,101312.35
2018-01-11T02:49:25.938Z,101313.80
2018-01-11T02:51:55.024Z,101332.36
2018-01-11T02:54:24.102Z,101325.20
2018-01-11T02:56:52.422Z,101334.52
2018-01-11T02:59:20.744Z,101333.94
2018-01-11T03:01:49.054Z,101335.59
2018-01-11T03:04:17.386Z,101336.42
2018-01-11T03:06:45.731Z,101341.75
2018-01-11T03:09:14.060Z,101339.31
2018-01-11T03:11:42.448Z,101347.05
2018-01-11T03:14:10.794Z,101351.05
2018-01-11T03:16:39.899Z,101353.80
2018-01-11T03:19:08.244Z,101356.47
2018-01-11T03:21:36.564Z,101356.55
2018-01-11T03:24:04.880Z,101365.37
2018-01-11T03:26:33.214Z,101367.95
2018-01-11T03:29:02.333Z,101371.36
2018-01-11T03:31:30.641Z,101374.94
2018-01-11T03:33:58.956Z,101371.45
2018-01-11T03:36:27.284Z,101366.63
2018-01-11T03:38:55.600Z,101377.61
2018-01-11T03:41:23.908Z,101375.45
2018-01-11T03:43:52.238Z,101379.95
2018-01-11T03:46:20.604Z,101384.86
2018-01-11T03:48:48.924Z,101388.03
2018-01-11T03:51:17.280Z,101382.46
2018-01-11T03:53:45.575Z,101391.28
2018-01-11T03:56:13.975Z,101390.19
2018-01-11T03:58:42.284Z,101397.18
2018-01-11T04:01:10.678Z,101396.83
2018-01-11T04:03:39.754Z,101397.66
2018-01-11T04:06:08.072Z,101408.91
2018-01-11T04:08:37.148Z,101405.77
2018-01-11T04:11:05.478Z,101411.92
2018-01-11T04:13:33.774Z,101414.59
2018-01-11T04:16:02.087Z,101421.23
2018-01-11T04:18:30.404Z,101423.69
2018-01-11T04:20:58.710Z,101428.19
2018-01-11T04:23:27.024Z,101425.84
2018-01-11T04:25:55.330Z,101422.17
2018-01-11T04:28:24.412Z,101420.43
2018-01-11T04:30:52.716Z,101428.52
2018-01-11T04:33:21.808Z,101421.34
2018-01-11T04:35:50.918Z,101418.44
2018-01-11T04:38:20.038Z,101423.69
2018-01-11T04:40:48.378Z,101421.84
2018-01-11T04:43:16.704Z,101417.44
2018-01-11T04:45:45.027Z,101417.94
2018-01-11T04:48:13.352Z,101429.31
2018-01-11T04:50:41.692Z,101431.83
2018-01-11T04:53:10.049Z,101439.41
2018-01-11T04:55:38.384Z,101452.14
2018-01-11T04:58:07.505Z,101450.16
2018-01-11T05:00:41.464Z,101451.58
2018-01-11T05:03:09.786Z,101447.31
2018-01-11T05:05:38.864Z,101453.63
2018-01-11T05:08:07.180Z,101454.01
2018-01-11T05:10:35.566Z,101456.32
2018-01-11T05:13:03.916Z,101465.14
2018-01-11T05:15:32.237Z,101463.58
2018-01-11T05:18:00.563Z,101465.06
2018-01-11T05:20:28.934Z,101468.80
2018-01-11T05:22:57.300Z,101471.80
2018-01-11T05:25:25.631Z,101478.05
2018-01-11T05:27:53.976Z,101478.88
2018-01-11T05:30:22.302Z,101482.88
2018-01-11T05:32:51.396Z,101490.04
2018-01-11T05:35:20.484Z,101484.05
2018-01-11T05:37:48.812Z,101484.49
2018-01-11T05:40:17.126Z,101500.21
2018-01-11T05:42:45.592Z,101501.69
2018-01-11T05:45:13.940Z,101503.37
2018-01-11T05:47:43.018Z,101510.12
2018-01-11T05:50:12.122Z,101512.30
2018-01-11T05:52:41.192Z,101511.89
2018-01-11T05:55:09.531Z,101523.55
2018-01-11T05:57:37.858Z,101524.38
2018-01-11T06:00:06.944Z,101521.55
2018-01-11T06:02:35.272Z,101529.61
2018-01-11T06:05:04.348Z,101533.93
2018-01-11T06:07:32.700Z,101536.68
2018-01-11T06:10:01.038Z,101545.75
2018-01-11T06:12:30.126Z,101548.26
2018-01-11T06:14:58.444Z,101549.68
2018-01-11T06:17:26.746Z,101554.17
2018-01-11T06:19:55.070Z,101560.02
2018-01-11T06:22:24.147Z,101567.77
2018-01-11T06:24:53.178Z,101565.27
2018-01-11T06:27:22.272Z,101566.78
2018-01-11T06:29:51.365Z,101575.19
2018-01-11T06:32:19.678Z,101583.84
2018-01-11T06:34:48.036Z,101584.02
2018-01-11T06:37:17.158Z,101584.02
2018-01-11T06:39:45.494Z,101585.34
2018-01-11T06:42:13.983Z,101584.92
2018-01-11T06:44:42.404Z,101592.77
2018-01-11T06:47:11.546Z,101601.22
2018-01-11T06:49:39.852Z,101608.38
2018-01-11T06:52:08.191Z,101607.47
2018-01-11T06:54:36.513Z,101611.64
2018-01-11T06:57:04.839Z,101614.56
2018-01-11T06:59:33.178Z,101614.06
2018-01-11T07:02:01.554Z,101613.60
2018-01-11T07:04:30.002Z,101613.60
2018-01-11T07:06:58.530Z,101617.11
2018-01-11T07:09:26.860Z,101619.11
2018-01-11T07:11:55.154Z,101630.52
2018-01-11T07:14:23.472Z,101629.09
2018-01-11T07:16:51.806Z,101641.33
2018-01-11T07:19:20.104Z,101650.33
2018-01-11T07:21:48.424Z,101652.41
2018-01-11T07:24:16.790Z,101650.74
2018-01-11T07:26:45.208Z,101654.83
2018-01-11T07:29:13.506Z,101656.16
2018-01-11T07:31:42.575Z,101668.23
2018-01-11T07:34:10.908Z,101669.89
2018-01-11T07:36:39.222Z,101674.47
2018-01-11T07:39:07.540Z,101676.63
2018-01-11T07:41:36.628Z,101682.80
2018-01-11T07:44:05.707Z,101689.20
2018-01-11T07:46:34.033Z,101679.88
2018-01-11T07:49:02.359Z,101685.08
2018-01-11T07:51:30.695Z,101692.48
2018-01-11T07:53:59.823Z,101690.08
2018-01-11T07:56:28.149Z,101700.06
2018-01-11T07:58:56.472Z,101698.15
2018-01-11T08:01:24.819Z,101703.81
2018-01-11T08:03:53.899Z,101695.56
2018-01-11T08:06:22.261Z,101703.06
2018-01-11T08:08:50.583Z,101709.80
2018-01-11T08:11:18.920Z,101711.38
2018-01-11T08:13:47.225Z,101716.21
2018-01-11T08:16:15.535Z,101711.52
2018-01-11T08:18:44.771Z,101723.92
2018-01-11T08:21:13.125Z,101731.25
2018-01-11T08:23:42.187Z,101739.62
2018-01-11T08:26:10.517Z,101741.95
2018-01-11T08:28:38.843Z,101749.36
2018-01-11T08:31:07.187Z,101761.44
2018-01-11T08:33:35.497Z,101759.31
2018-01-11T08:36:03.817Z,101764.39
2018-01-11T08:38:32.151Z,101771.23
2018-01-11T08:41:00.461Z,101776.22
2018-01-11T08:43:28.777Z,101772.55
2018-01-11T08:45:57.867Z,101776.39
2018-01-11T08:48:26.185Z,101775.22
2018-01-11T08:50:54.501Z,101779.97
2018-01-11T08:53:22.815Z,101782.68
2018-01-11T08:55:51.999Z,101785.77
2018-01-11T08:58:20.325Z,101789.34
2018-01-11T09:00:48.647Z,101791.34
2018-01-11T09:03:16.973Z,101789.42
2018-01-11T09:05:46.780Z,101797.53
2018-01-11T09:08:15.294Z,101794.70
2018-01-11T09:10:43.635Z,101803.45
2018-01-11T09:13:11.969Z,101803.36
2018-01-11T09:15:40.266Z,101802.95
2018-01-11T09:18:08.603Z,101809.75
2018-01-11T09:20:38.261Z,101821.49
2018-01-11T09:23:07.029Z,101826.91
2018-01-11T09:25:35.384Z,101830.73
2018-01-11T09:28:04.451Z,101836.81
2018-01-11T09:30:32.772Z,101836.91
2018-01-11T09:33:01.844Z,101841.16
2018-01-11T09:35:30.197Z,101850.06
2018-01-11T09:37:58.509Z,101855.73
2018-01-11T09:40:26.831Z,101857.53
2018-01-11T09:42:55.171Z,101865.53
2018-01-11T09:45:23.529Z,101866.86
2018-01-11T09:47:51.842Z,101871.86
2018-01-11T09:50:20.156Z,101880.08
2018-01-11T09:52:48.477Z,101889.99
2018-01-11T09:55:16.799Z,101898.00
2018-01-11T09:57:45.870Z,101902.91
2018-01-11T10:00:14.187Z,101899.75
2018-01-11T10:02:43.282Z,101900.66
2018-01-11T10:05:13.087Z,101906.33
2018-01-11T10:07:41.412Z,101899.25
2018-01-11T10:10:09.744Z,101905.58
2018-01-11T10:12:38.072Z,101907.92
2018-01-11T10:15:06.431Z,101909.62
2018-01-11T10:17:34.760Z,101908.58
2018-01-11T10:20:03.081Z,101910.42
2018-01-11T10:22:31.409Z,101906.66
2018-01-11T10:24:59.734Z,101914.00
2018-01-11T10:27:28.051Z,101913.75
2018-01-11T10:29:56.373Z,101918.17
2018-01-11T10:32:24.722Z,101914.91
2018-01-11T10:34:53.081Z,101909.92
2018-01-11T10:37:22.233Z,101911.92
2018-01-11T10:39:50.559Z,101912.50
2018-01-11T10:42:19.659Z,101904.25
2018-01-11T10:44:48.777Z,101910.58
2018-01-11T10:47:17.901Z,101912.66
2018-01-11T10:49:46.196Z,101923.63
2018-01-11T10:52:14.565Z,101920.38
2018-01-11T10:54:42.892Z,101918.04
2018-01-11T10:57:11.255Z,101924.21
2018-01-11T10:59:39.576Z,101923.47
2018-01-11T11:02:14.289Z,101929.97
2018-01-11T11:04:43.195Z,101926.34
2018-01-11T11:07:13.082Z,101935.67
2018-01-11T11:09:41.512Z,101933.59
2018-01-11T11:12:09.863Z,101940.34
2018-01-11T11:14:38.197Z,101937.76
2018-01-11T11:17:06.511Z,101938.09
2018-01-11T11:19:34.845Z,101941.92
2018-01-11T11:22:03.178Z,101938.51
2018-01-11T11:24:31.630Z,101946.09
2018-01-11T11:27:00.788Z,101943.34
2018-01-11T11:29:30.048Z,101944.02
2018-01-11T11:31:59.236Z,101945.02
2018-01-11T11:34:27.569Z,101953.84
2018-01-11T11:36:55.893Z,101949.73
2018-01-11T11:39:24.206Z,101951.81
2018-01-11T11:41:52.554Z,101952.56
2018-01-11T11:46:54.834Z,101949.85
2018-01-11T11:49:23.146Z,101946.60
2018-01-11T11:51:51.467Z,101954.23
2018-01-11T11:56:54.310Z,101953.64
2018-01-11T11:59:22.646Z,101952.64
2018-01-11T12:01:51.567Z,101955.14
2018-01-11T12:04:20.647Z,101956.06
2018-01-11T12:06:48.969Z,101955.23
2018-01-11T12:09:17.304Z,101960.48
2018-01-11T12:11:45.632Z,101965.63
2018-01-11T12:14:13.945Z,101971.38
2018-01-11T12:16:42.247Z,101974.45
2018-01-11T12:19:10.592Z,101974.04
2018-01-11T12:21:38.919Z,101976.95
2018-01-11T12:24:07.237Z,101977.92
2018-01-11T12:26:35.545Z,101979.13
2018-01-11T12:29:03.856Z,101985.05
2018-01-11T12:31:32.190Z,101982.34
2018-01-11T12:34:00.522Z,101979.25
2018-01-11T12:36:28.850Z,101981.59
2018-01-11T12:38:57.238Z,101983.75
2018-01-11T12:41:25.564Z,101979.92
2018-01-11T12:43:53.901Z,101989.13
2018-01-11T12:46:22.228Z,101979.54
2018-01-11T12:48:50.557Z,101984.12
2018-01-11T12:51:18.872Z,101993.30
2018-01-11T12:53:47.967Z,101994.55
2018-01-11T12:56:16.282Z,102003.73
2018-01-11T12:58:44.661Z,101998.22
2018-01-11T13:01:13.056Z,102006.81
2018-01-11T13:03:41.394Z,102012.98
2018-01-11T13:06:09.701Z,102008.90
2018-01-11T13:08:38.019Z,102012.28
2018-01-11T13:11:07.092Z,102020.46
2018-01-11T13:13:35.420Z,102021.62
2018-01-11T13:16:03.752Z,102024.62
2018-01-11T13:18:32.086Z,102026.22
2018-01-11T13:21:00.398Z,102025.12
2018-01-11T13:23:28.712Z,102030.80
2018-01-11T13:25:57.046Z,102024.88
2018-01-11T13:28:25.384Z,102038.47
2018-01-11T13:30:54.496Z,102033.84
2018-01-11T13:33:22.822Z,102032.92
2018-01-11T13:35:51.152Z,102041.26
2018-01-11T13:38:20.264Z,102042.01
2018-01-11T13:40:48.570Z,102037.75
2018-01-11T13:43:16.946Z,102044.03
2018-01-11T13:45:45.322Z,102050.45
2018-01-11T13:48:13.628Z,102066.11
2018-01-11T13:50:41.956Z,102055.84
2018-01-11T13:53:10.373Z,102061.77
2018-01-11T13:55:38.649Z,102068.72
2018-01-11T13:58:06.985Z,102071.47
2018-01-11T14:00:35.321Z,102071.63
2018-01-11T14:03:04.440Z,102077.30
2018-01-11T14:05:32.746Z,102077.72
2018-01-11T14:08:01.086Z,102085.64
2018-01-11T14:10:29.424Z,102084.80
2018-01-11T14:12:57.762Z,102093.89
2018-01-11T14:15:26.085Z,102094.63
2018-01-11T14:17:54.423Z,102099.62
2018-01-11T14:20:22.777Z,102092.30
2018-01-11T14:22:51.160Z,102101.73
2018-01-11T14:25:19.491Z,102095.73
2018-01-11T14:27:47.826Z,102097.05
2018-01-11T14:30:16.171Z,102104.47
2018-01-11T14:32:44.477Z,102100.88
2018-01-11T14:35:13.570Z,102104.98
2018-01-11T14:37:42.690Z,102107.15
2018-01-11T14:40:11.026Z,102111.79
2018-01-11T14:42:39.352Z,102117.58
2018-01-11T14:45:07.710Z,102115.56
2018-01-11T14:47:36.061Z,102124.41
2018-01-11T14:50:04.413Z,102120.48
2018-01-11T14:52:32.712Z,102126.06
2018-01-11T14:55:01.029Z,102134.84
2018-01-11T14:57:29.368Z,102132.17
2018-01-11T14:59:57.693Z,102131.31
2018-01-11T15:02:26.066Z,102132.90
2018-01-11T15:04:54.418Z,102138.43
2018-01-11T15:07:22.756Z,102150.10
2018-01-11T15:09:51.105Z,102154.94
2018-01-11T15:12:19.416Z,102154.44
2018-01-11T15:14:47.752Z,102160.00
2018-01-11T15:17:16.162Z,102168.70
2018-01-11T15:19:44.504Z,102165.02
2018-01-11T15:22:12.822Z,102165.52
2018-01-11T15:24:41.138Z,102164.59
2018-01-11T15:27:10.225Z,102170.86
2018-01-11T15:29:38.666Z,102172.10
2018-01-11T15:32:06.990Z,102181.20
2018-01-11T15:34:35.324Z,102180.86
2018-01-11T15:37:03.641Z,102193.03
2018-01-11T15:39:32.010Z,102190.52
2018-01-11T15:42:00.326Z,102195.12
2018-01-11T15:44:28.654Z,102195.28
2018-01-11T15:46:56.986Z,102198.69
2018-01-11T15:49:25.304Z,102205.59
2018-01-11T15:51:53.623Z,102205.42
2018-01-11T15:54:21.941Z,102204.66
2018-01-11T15:56:51.018Z,102201.99
2018-01-11T15:59:19.332Z,102203.68
2018-01-11T16:01:47.752Z,102208.58
2018-01-11T16:04:16.096Z,102210.05
2018-01-11T16:06:45.255Z,102209.72
2018-01-11T16:09:13.570Z,102218.53
2018-01-11T16:11:42.669Z,102223.20
2018-01-11T16:14:11.758Z,102222.17
2018-01-11T16:16:40.151Z,102223.80
2018-01-11T16:19:08.507Z,102235.69
2018-01-11T16:21:36.952Z,102233.10
2018-01-11T16:24:05.297Z,102234.75
2018-01-11T16:26:33.610Z,102244.00
2018-01-11T16:29:01.930Z,102248.25
2018-01-11T16:31:30.264Z,102245.85
2018-01-11T16:33:58.582Z,102254.35
2018-01-11T16:36:26.928Z,102252.73
2018-01-11T16:38:55.243Z,102262.86
2018-01-11T16:41:23.576Z,102273.29
2018-01-11T16:43:52.679Z,102276.53
2018-01-11T16:46:22.512Z,102272.95
2018-01-11T16:48:50.851Z,102264.88
2018-01-11T16:51:19.185Z,102261.73
2018-01-11T16:53:47.491Z,102273.03
2018-01-11T16:56:15.800Z,102278.94
2018-01-11T16:58:44.144Z,102282.97
2018-01-11T17:01:12.445Z,102280.76
2018-01-11T17:03:40.766Z,102280.19
2018-01-11T17:06:09.880Z,102285.44
2018-01-11T17:08:38.216Z,102288.26
2018-01-11T17:11:06.650Z,102286.81
2018-01-11T17:13:34.974Z,102290.63
2018-01-11T17:16:03.306Z,102295.20
2018-01-11T17:18:31.624Z,102293.59
2018-01-11T17:20:59.938Z,102292.11
2018-01-11T17:23:28.250Z,102294.63
2018-01-11T17:25:57.335Z,102297.28
2018-01-11T17:28:26.426Z,102301.28
2018-01-11T17:30:54.754Z,102307.19
2018-01-11T17:33:23.062Z,102309.50
2018-01-11T17:35:51.397Z,102313.58
2018-01-11T17:38:19.749Z,102317.58
2018-01-11T17:40:48.093Z,102322.38
2018-01-11T17:43:16.396Z,102324.84
2018-01-11T17:45:44.709Z,102323.55
2018-01-11T17:48:13.772Z,102323.42
2018-01-11T17:50:42.141Z,102326.55
2018-01-11T17:53:10.579Z,102326.38
2018-01-11T17:55:39.713Z,102323.38
2018-01-11T17:58:08.077Z,102323.91
2018-01-11T18:00:36.385Z,102324.88
2018-01-11T18:03:04.703Z,102330.23
2018-01-11T18:05:33.035Z,102340.52
2018-01-11T18:08:01.386Z,102337.41
2018-01-11T18:10:30.525Z,102341.87
2018-01-11T18:12:58.865Z,102342.94
2018-01-11T18:15:27.966Z,102347.75
2018-01-11T18:17:57.135Z,102352.92
2018-01-11T18:20:25.482Z,102359.58
2018-01-11T18:22:54.548Z,102357.75
2018-01-11T18:25:22.869Z,102361.33
2018-01-11T18:27:51.212Z,102365.41
2018-01-11T18:30:20.294Z,102365.20
2018-01-11T18:32:48.607Z,102373.34
2018-01-11T18:35:16.942Z,102369.03
2018-01-11T18:37:45.249Z,102373.25
2018-01-11T18:40:13.562Z,102390.34
2018-01-11T18:42:41.906Z,102395.14
2018-01-11T18:45:11.005Z,102393.81
2018-01-11T18:47:39.315Z,102398.03
2018-01-11T18:50:08.399Z,102402.13
2018-01-11T18:52:37.476Z,102400.52
2018-01-11T18:55:05.780Z,102408.02
2018-01-11T18:57:34.857Z,102416.16
2018-01-11T19:00:03.192Z,102411.66
2018-01-11T19:02:31.531Z,102418.58
2018-01-11T19:04:59.857Z,102417.13
2018-01-11T19:07:28.213Z,102418.45
2018-01-11T19:09:57.325Z,102414.61
2018-01-11T19:12:25.649Z,102420.50
2018-01-11T19:14:53.965Z,102430.23
2018-01-11T19:17:23.056Z,102428.98
2018-01-11T19:19:51.493Z,102431.00
2018-01-11T19:22:19.796Z,102431.77
2018-01-11T19:24:48.110Z,102436.45
2018-01-11T19:27:16.419Z,102432.83
2018-01-11T19:29:44.752Z,102437.17
2018-01-11T19:32:13.053Z,102443.90
2018-01-11T19:34:41.384Z,102454.04
2018-01-11T19:37:09.723Z,102459.59
2018-01-11T19:39:38.055Z,102466.95
2018-01-11T19:42:06.386Z,102458.62
2018-01-11T19:44:34.699Z,102463.36
2018-01-11T19:47:03.010Z,102468.44
2018-01-11T19:49:31.312Z,102475.16
2018-01-11T19:51:59.677Z,102469.69
2018-01-11T19:54:28.813Z,102471.44
2018-01-11T19:56:57.130Z,102469.69
2018-01-11T19:59:25.455Z,102471.42
2018-01-11T20:01:53.800Z,102471.08
2018-01-11T20:04:22.144Z,102467.57
2018-01-11T20:06:50.515Z,102470.02
2018-01-11T20:09:18.917Z,102467.30
2018-01-11T20:11:47.373Z,102473.95
2018-01-11T20:14:15.687Z,102481.25
2018-01-11T20:16:44.788Z,102483.48
2018-01-11T20:19:13.877Z,102487.98
2018-01-11T20:21:42.960Z,102487.02
2018-01-11T20:24:11.264Z,102497.17
2018-01-11T20:26:40.361Z,102490.59
2018-01-11T20:29:09.430Z,102497.51
2018-01-11T20:31:37.758Z,102501.79
2018-01-11T20:34:06.861Z,102504.03
2018-01-11T20:36:35.163Z,102504.37
2018-01-11T20:39:03.629Z,102506.00
2018-01-11T20:41:31.930Z,102512.23
2018-01-11T20:44:00.241Z,102513.08
2018-01-11T20:46:28.565Z,102517.22
2018-01-11T20:48:57.631Z,102517.91
2018-01-11T20:51:25.921Z,102516.22
2018-01-11T20:53:54.244Z,102516.56
2018-01-11T20:56:22.543Z,102509.98
2018-01-11T20:58:50.845Z,102510.40
2018-01-11T21:01:19.155Z,102512.02
2018-01-11T21:03:48.219Z,102505.64
2018-01-11T21:06:17.297Z,102509.98
2018-01-11T21:08:45.618Z,102514.54
2018-01-11T21:11:13.978Z,102513.27
2018-01-11T21:13:42.299Z,102515.45
2018-01-11T21:16:11.424Z,102517.14
2018-01-11T21:18:39.711Z,102523.38
2018-01-11T21:21:08.018Z,102521.77
2018-01-11T21:23:36.334Z,102521.60
2018-01-11T21:26:04.639Z,102518.45
2018-01-11T21:28:33.732Z,102515.36
2018-01-11T21:31:02.786Z,102515.70
2018-01-11T21:33:31.084Z,102515.66
2018-01-11T21:35:59.393Z,102516.64
2018-01-11T21:38:28.469Z,102518.74
2018-01-11T21:40:56.760Z,102523.02
2018-01-11T21:43:25.073Z,102524.89
2018-01-11T21:45:53.367Z,102532.48
2018-01-11T21:48:21.693Z,102532.91
2018-01-11T21:50:50.001Z,102533.23
2018-01-11T21:53:19.079Z,102534.06
2018-01-11T21:55:47.377Z,102538.56
2018-01-11T21:58:16.429Z,102539.25
2018-01-11T22:00:44.745Z,102539.56
2018-01-11T22:03:13.057Z,102546.13
2018-01-11T22:05:41.371Z,102557.64
2018-01-11T22:08:09.677Z,102554.42
2018-01-11T22:10:37.993Z,102554.05
2018-01-11T22:13:07.045Z,102553.99
2018-01-11T22:15:35.437Z,102565.77
2018-01-11T22:18:03.737Z,102567.38
2018-01-11T22:20:32.822Z,102563.80
2018-01-11T22:23:01.257Z,102566.61
2018-01-11T22:25:30.427Z,102564.30
2018-01-11T22:27:58.753Z,102564.42
2018-01-11T22:30:27.127Z,102569.05
2018-01-11T22:32:55.437Z,102568.38
2018-01-11T22:35:23.740Z,102572.23
2018-01-11T22:37:52.056Z,102577.19
2018-01-11T22:40:20.403Z,102577.54
2018-01-11T22:42:49.474Z,102578.38
2018-01-11T22:45:17.780Z,102573.82
2018-01-11T22:47:46.116Z,102576.61
2018-01-11T22:50:14.431Z,102583.00
2018-01-11T22:52:42.742Z,102585.02
2018-01-11T22:55:11.041Z,102585.20
2018-01-11T22:57:39.398Z,102579.87
2018-01-11T23:00:09.378Z,102588.21
2018-01-11T23:02:37.671Z,102598.23
2018-01-11T23:05:05.976Z,102604.10
2018-01-11T23:07:35.059Z,102610.32
2018-01-11T23:10:03.452Z,102613.55
2018-01-11T23:12:32.533Z,102605.09
2018-01-11T23:15:00.835Z,102610.48
2018-01-11T23:17:29.136Z,102615.70
2018-01-11T23:19:58.216Z,102621.17
2018-01-11T23:22:26.532Z,102626.60
2018-01-11T23:24:54.920Z,102623.66
2018-01-11T23:27:23.247Z,102619.53
2018-01-11T23:29:51.563Z,102616.86
2018-01-11T23:32:19.909Z,102614.66
2018-01-11T23:34:48.208Z,102615.14
2018-01-11T23:37:17.188Z,102627.13
2018-01-11T23:39:45.487Z,102615.66
2018-01-11T23:42:13.798Z,102624.14
2018-01-11T23:44:42.864Z,102626.52
2018-01-11T23:47:11.942Z,102628.48
2018-01-11T23:49:40.271Z,102621.97
2018-01-11T23:52:09.376Z,102631.78
2018-01-11T23:54:38.442Z,102629.40
2018-01-11T23:57:08.252Z,102633.36
2018-01-11T23:59:36.577Z,102628.95
